Terminal Aerodrome Forecast
Issued by NWS

Home | Current Version | Previous Version | Text Only | Print | Product List | Glossary On
Versions: 1 2 3 4 5 6 7 8 9 10 11 12 13 14 15 16 17 18
632
FTUS42 KTBW 201725
TAFPGD
TAF
KPGD 201725Z 2018/2118 10007KT P6SM FEW050
     FM202200 22004KT P6SM FEW200
     FM210200 00000KT P6SM FEW040 SCT200
     FM210800 VRB03KT 2SM BR SKC
     FM211400 11007KT P6SM SCT250=

USA.gov is the U.S. government's official web portal to all federal, state and local government web resources and services.